^^
Grace C. Lehan Memorial Weather Station Historical Data
Daily Summary for March 31, 2021 Units:  Both    English   Metric
Daily Weekly Monthly Yearly
  High: Low: Average:
Temperature: 63.1 °F /  17.3 °C 47.8 °F /  8.8 °C 55.7 °F /  13.2 °C
Dew Point: 54.6 °F /  12.6 °C 46.7 °F /  8.2 °C 51.5 °F /  10.8 °C
Humidity: 99.5% 71% 86%
Wind Speed: 7.6mph /  12.2km/h - 1.5mph /  2.4km/h
Wind Gust: 20mph /  32.2km/h - -
Wind- - WNW
Pressure: 30.19 in /  1022.2 hPa 30.09 in /  1018.8 hPa -
Precipitation: 0.00 in /  0 mm    
 
 
Tabular Data for March 31, 2021
Time Temperature Dew Point Pressure Wind Wind Speed Wind Gust Humidity Rainfall Rate (Hourly) solar
00:04 47.8 °F /  8.8 °C 46.7 °F /  8.2 °C 30.12in /  1019.9hPa Calm   1mph /  1.6km/h 96% 0.16in /  4.06mm 0 W/m2
00:09 47.8 °F /  8.8 °C 46.7 °F /  8.2 °C 30.12in /  1019.9hPa NW 1.3mph /  2.1km/h 10mph /  16.1km/h 96% 0.17in /  4.32mm 0 W/m2
00:14 47.8 °F /  8.8 °C 46.8 °F /  8.2 °C 30.12in /  1019.9hPa NW 0.5mph /  0.8km/h 10mph /  16.1km/h 96% 0.17in /  4.32mm 0 W/m2
00:19 47.8 °F /  8.8 °C 46.8 °F /  8.2 °C 30.12in /  1019.9hPa North 0.9mph /  1.4km/h 10mph /  16.1km/h 96% 0.17in /  4.32mm 0 W/m2
00:24 47.9 °F /  8.8 °C 46.8 °F /  8.2 °C 30.11in /  1019.5hPa North 0.8mph /  1.3km/h 10mph /  16.1km/h 96% 0.18in /  4.57mm 0 W/m2
00:28 47.9 °F /  8.8 °C 46.8 °F /  8.2 °C 30.11in /  1019.5hPa NNE 0.4mph /  0.6km/h 10mph /  16.1km/h 96% 0.18in /  4.57mm 0 W/m2
00:30 47.8 °F /  8.8 °C 46.7 °F /  8.2 °C 30.11in /  1019.5hPa NW 1mph /  1.6km/h 10mph /  16.1km/h 96% 0.04in /  1.02mm 0 W/m2
02:00 47.8 °F /  8.8 °C 47 °F /  8.3 °C 30.10in /  1019.2hPa NNW 1mph /  1.6km/h 12mph /  19.3km/h 97% 0.09in /  2.29mm 0 W/m2
02:30 47.8 °F /  8.8 °C 47 °F /  8.3 °C 30.10in /  1019.2hPa North 1mph /  1.6km/h 13mph /  20.9km/h 97% 0.08in /  2.03mm 0 W/m2
03:00 47.9 °F /  8.8 °C 47.1 °F /  8.4 °C 30.10in /  1019.2hPa NW 1mph /  1.6km/h 9mph /  14.5km/h 97% 0.07in /  1.78mm 0 W/m2
03:30 48.1 °F /  8.9 °C 47.3 °F /  8.5 °C 30.10in /  1019.2hPa North 1mph /  1.6km/h 10mph /  16.1km/h 97% 0.06in /  1.52mm 0 W/m2
04:04 48.2 °F /  9 °C 47.9 °F /  8.8 °C 30.10in /  1019.2hPa Calm   1mph /  1.6km/h 98.8% 0.17in /  4.32mm 0 W/m2
04:09 48.2 °F /  9 °C 47.9 °F /  8.8 °C 30.10in /  1019.2hPa North 1.2mph /  1.9km/h 6mph /  9.7km/h 98.8% 0.17in /  4.32mm 0 W/m2
04:14 48.2 °F /  9 °C 48.1 °F /  8.9 °C 30.10in /  1019.2hPa NW 0.5mph /  0.8km/h 6mph /  9.7km/h 99.5% 0.17in /  4.32mm 0 W/m2
04:19 48.2 °F /  9 °C 47.5 °F /  8.6 °C 30.09in /  1018.8hPa NNW 1.1mph /  1.8km/h 7mph /  11.3km/h 97.2% 0.18in /  4.57mm 0 W/m2
04:24 48.2 °F /  9 °C 47.7 °F /  8.7 °C 30.10in /  1019.2hPa NW 1.9mph /  3.1km/h 11mph /  17.7km/h 98% 0.18in /  4.57mm 0 W/m2
04:29 48.2 °F /  9 °C 47.4 °F /  8.6 °C 30.10in /  1019.2hPa NNW 0.6mph /  1km/h 11mph /  17.7km/h 97% 0.18in /  4.57mm 0 W/m2
04:34 48.3 °F /  9.1 °C 47.5 °F /  8.6 °C 30.09in /  1018.8hPa NW 1.5mph /  2.4km/h 11mph /  17.7km/h 97% 0.18in /  4.57mm 0 W/m2
04:39 48.3 °F /  9.1 °C 47.5 °F /  8.6 °C 30.10in /  1019.2hPa NNW 0.8mph /  1.3km/h 7mph /  11.3km/h 97% 0.15in /  3.81mm 0 W/m2
04:44 48.3 °F /  9.1 °C 47.5 °F /  8.6 °C 30.10in /  1019.2hPa North 0.1mph /  0.2km/h 7mph /  11.3km/h 97% 0.15in /  3.81mm 0 W/m2
04:49 48.3 °F /  9.1 °C 47.5 °F /  8.6 °C 30.11in /  1019.5hPa North 1.3mph /  2.1km/h 9mph /  14.5km/h 97% 0.15in /  3.81mm 0 W/m2
04:54 48.3 °F /  9.1 °C 47.5 °F /  8.6 °C 30.11in /  1019.5hPa NNE 0.4mph /  0.6km/h 9mph /  14.5km/h 97% 0.15in /  3.81mm 0 W/m2
04:59 48.4 °F /  9.1 °C 47.6 °F /  8.7 °C 30.11in /  1019.5hPa North 1.1mph /  1.8km/h 9mph /  14.5km/h 97% 0.15in /  3.81mm 0 W/m2
05:04 48.4 °F /  9.1 °C 47.6 °F /  8.7 °C 30.11in /  1019.5hPa NNW 1.2mph /  1.9km/h 9mph /  14.5km/h 97% 0.15in /  3.81mm 0 W/m2
05:09 48.4 °F /  9.1 °C 47.6 °F /  8.7 °C 30.10in /  1019.2hPa NW 0.1mph /  0.2km/h 7mph /  11.3km/h 97% 0.02in /  0.51mm 0 W/m2
05:14 48.5 °F /  9.2 °C 47.7 °F /  8.7 °C 30.10in /  1019.2hPa NW 0.6mph /  1km/h 8mph /  12.9km/h 97% 0.02in /  0.51mm 0 W/m2
05:19 48.5 °F /  9.2 °C 47.7 °F /  8.7 °C 30.10in /  1019.2hPa NNW 0.3mph /  0.5km/h 8mph /  12.9km/h 97% 0.02in /  0.51mm 0 W/m2
05:24 48.5 °F /  9.2 °C 47.7 °F /  8.7 °C 30.10in /  1019.2hPa North 0.8mph /  1.3km/h 8mph /  12.9km/h 97% 0.02in /  0.51mm 0 W/m2
05:29 48.5 °F /  9.2 °C 47.7 °F /  8.7 °C 30.11in /  1019.5hPa NNW 1.1mph /  1.8km/h 8mph /  12.9km/h 97% 0.03in /  0.76mm 0 W/m2
05:34 48.5 °F /  9.2 °C 47.7 °F /  8.7 °C 30.11in /  1019.5hPa NNW 0.7mph /  1.1km/h 8mph /  12.9km/h 97% 0.03in /  0.76mm 0 W/m2
05:39 48.5 °F /  9.2 °C 47.7 °F /  8.7 °C 30.11in /  1019.5hPa NW 1.1mph /  1.8km/h 9mph /  14.5km/h 97% 0.03in /  0.76mm 0 W/m2
05:44 48.6 °F /  9.2 °C 47.8 °F /  8.8 °C 30.11in /  1019.5hPa North 0.5mph /  0.8km/h 9mph /  14.5km/h 97% 0.03in /  0.76mm 5 W/m2
05:49 48.6 °F /  9.2 °C 47.8 °F /  8.8 °C 30.12in /  1019.9hPa NW 1.6mph /  2.6km/h 9mph /  14.5km/h 97% 0.03in /  0.76mm 7 W/m2
05:54 48.6 °F /  9.2 °C 47.8 °F /  8.8 °C 30.12in /  1019.9hPa NNW 1.1mph /  1.8km/h 9mph /  14.5km/h 97% 0.03in /  0.76mm 9 W/m2
05:59 48.7 °F /  9.3 °C 47.9 °F /  8.8 °C 30.12in /  1019.9hPa WNW 1.3mph /  2.1km/h 9mph /  14.5km/h 97% 0.03in /  0.76mm 11 W/m2
06:04 48.7 °F /  9.3 °C 47.9 °F /  8.8 °C 30.12in /  1019.9hPa West 1.1mph /  1.8km/h 9mph /  14.5km/h 97% 0.03in /  0.76mm 11 W/m2
06:09 48.7 °F /  9.3 °C 47.9 °F /  8.8 °C 30.12in /  1019.9hPa NW 0.6mph /  1km/h 6mph /  9.7km/h 97% 0.02in /  0.51mm 16 W/m2
06:14 48.8 °F /  9.3 °C 48 °F /  8.9 °C 30.12in /  1019.9hPa NW 0.7mph /  1.1km/h 6mph /  9.7km/h 97% 0.02in /  0.51mm 23 W/m2
06:19 48.8 °F /  9.3 °C 48 °F /  8.9 °C 30.12in /  1019.9hPa NW 0.5mph /  0.8km/h 6mph /  9.7km/h 97% 0.02in /  0.51mm 33 W/m2
06:24 48.9 °F /  9.4 °C 48.1 °F /  8.9 °C 30.12in /  1019.9hPa NNW 0.9mph /  1.4km/h 6mph /  9.7km/h 97% 0.02in /  0.51mm 46 W/m2
06:29 49 °F /  9.4 °C 48.1 °F /  8.9 °C 30.12in /  1019.9hPa NE 0.2mph /  0.3km/h 6mph /  9.7km/h 97% 0.02in /  0.51mm 56 W/m2
06:34 49 °F /  9.4 °C 48.2 °F /  9 °C 30.12in /  1019.9hPa NW 0.1mph /  0.2km/h 6mph /  9.7km/h 97% 0.02in /  0.51mm 62 W/m2
06:39 49.2 °F /  9.6 °C 48.4 °F /  9.1 °C 30.11in /  1019.5hPa NE 0.9mph /  1.4km/h 7mph /  11.3km/h 97% 0.01in /  0.25mm 63 W/m2
06:44 49.2 °F /  9.6 °C 48.4 °F /  9.1 °C 30.12in /  1019.9hPa NW 0.4mph /  0.6km/h 7mph /  11.3km/h 97% 0.01in /  0.25mm 69 W/m2
06:49 49.3 °F /  9.6 °C 48.5 °F /  9.2 °C 30.12in /  1019.9hPa NW 0.1mph /  0.2km/h 7mph /  11.3km/h 97% 0.01in /  0.25mm 67 W/m2
06:54 49.4 °F /  9.7 °C 48.6 °F /  9.2 °C 30.12in /  1019.9hPa NNW 1.5mph /  2.4km/h 7mph /  11.3km/h 97% 0.01in /  0.25mm 83 W/m2
06:59 49.5 °F /  9.7 °C 48.7 °F /  9.3 °C 30.12in /  1019.9hPa NW 0.3mph /  0.5km/h 7mph /  11.3km/h 97% 0.01in /  0.25mm 74 W/m2
07:04 49.6 °F /  9.8 °C 48.8 °F /  9.3 °C 30.13in /  1020.2hPa NNW 0.8mph /  1.3km/h 7mph /  11.3km/h 97% 0.01in /  0.25mm 72 W/m2
07:09 49.7 °F /  9.8 °C 48.9 °F /  9.4 °C 30.13in /  1020.2hPa NNE 0.7mph /  1.1km/h 7mph /  11.3km/h 97% 0.01in /  0.25mm 74 W/m2
07:14 49.7 °F /  9.8 °C 48.9 °F /  9.4 °C 30.13in /  1020.2hPa NNE 0.3mph /  0.5km/h 7mph /  11.3km/h 97% 0.01in /  0.25mm 53 W/m2
07:19 49.9 °F /  9.9 °C 49.1 °F /  9.5 °C 30.14in /  1020.5hPa NNW 0.6mph /  1km/h 7mph /  11.3km/h 97% 0.01in /  0.25mm 56 W/m2
07:24 49.9 °F /  9.9 °C 49.1 °F /  9.5 °C 30.14in /  1020.5hPa West 0.5mph /  0.8km/h 7mph /  11.3km/h 97% 0.01in /  0.25mm 49 W/m2
07:29 49.9 °F /  9.9 °C 49.1 °F /  9.5 °C 30.14in /  1020.5hPa WNW 1.4mph /  2.3km/h 7mph /  11.3km/h 97% 0.01in /  0.25mm 51 W/m2
07:34 49.9 °F /  9.9 °C 49.1 °F /  9.5 °C 30.14in /  1020.5hPa NW 0.7mph /  1.1km/h 7mph /  11.3km/h 97% 0.01in /  0.25mm 53 W/m2
07:39 50 °F /  10 °C 49.2 °F /  9.6 °C 30.14in /  1020.5hPa NW 1.8mph /  2.9km/h 5mph /  8km/h 97% 0.01in /  0.25mm 53 W/m2
07:44 50 °F /  10 °C 49.2 °F /  9.6 °C 30.15in /  1020.9hPa WNW 0.8mph /  1.3km/h 6mph /  9.7km/h 97% 0.01in /  0.25mm 54 W/m2
07:49 50 °F /  10 °C 49.2 °F /  9.6 °C 30.15in /  1020.9hPa NNW 1.1mph /  1.8km/h 7mph /  11.3km/h 97% 0.01in /  0.25mm 60 W/m2
07:54 50.1 °F /  10.1 °C 49.3 °F /  9.6 °C 30.15in /  1020.9hPa NW 0.7mph /  1.1km/h 7mph /  11.3km/h 97% 0.01in /  0.25mm 77 W/m2
07:59 50.1 °F /  10.1 °C 49.3 °F /  9.6 °C 30.15in /  1020.9hPa NW 1.3mph /  2.1km/h 7mph /  11.3km/h 97% 0.01in /  0.25mm 77 W/m2
08:04 50.2 °F /  10.1 °C 49.4 °F /  9.7 °C 30.14in /  1020.5hPa North 0.7mph /  1.1km/h 5mph /  8km/h 97% 0.01in /  0.25mm 74 W/m2
08:09 50.3 °F /  10.2 °C 49.5 °F /  9.7 °C 30.14in /  1020.5hPa North 0.7mph /  1.1km/h 5mph /  8km/h 97% 0.01in /  0.25mm 104 W/m2
08:14 50.4 °F /  10.2 °C 49.6 °F /  9.8 °C 30.14in /  1020.5hPa Calm   5mph /  8km/h 97% 0.01in /  0.25mm 149 W/m2
08:19 50.5 °F /  10.3 °C 49.7 °F /  9.8 °C 30.13in /  1020.2hPa Calm   5mph /  8km/h 97% 0.01in /  0.25mm 237 W/m2
08:24 50.8 °F /  10.4 °C 50 °F /  10 °C 30.13in /  1020.2hPa North 0.6mph /  1km/h 5mph /  8km/h 97% 0.01in /  0.25mm 285 W/m2
08:29 51.5 °F /  10.8 °C 50.7 °F /  10.4 °C 30.13in /  1020.2hPa NW 0.3mph /  0.5km/h 5mph /  8km/h 97% 0.01in /  0.25mm 315 W/m2
08:34 52.1 °F /  11.2 °C 51.3 °F /  10.7 °C 30.14in /  1020.5hPa NNE 0.3mph /  0.5km/h 5mph /  8km/h 97% 0.01in /  0.25mm 299 W/m2
08:39 52.5 °F /  11.4 °C 51.6 °F /  10.9 °C 30.13in /  1020.2hPa North 0.4mph /  0.6km/h 4mph /  6.4km/h 97% 0.00in /  0mm 260 W/m2
08:44 52.4 °F /  11.3 °C 51.5 °F /  10.8 °C 30.14in /  1020.5hPa NW 0.9mph /  1.4km/h 7mph /  11.3km/h 97% 0.00in /  0mm 206 W/m2
08:49 52.2 °F /  11.2 °C 51.4 °F /  10.8 °C 30.14in /  1020.5hPa NNW 1.9mph /  3.1km/h 7mph /  11.3km/h 97% 0.00in /  0mm 204 W/m2
08:54 52.1 °F /  11.2 °C 51.3 °F /  10.7 °C 30.14in /  1020.5hPa NW 1.7mph /  2.7km/h 10mph /  16.1km/h 97% 0.00in /  0mm 216 W/m2
08:59 52.1 °F /  11.2 °C 51.3 °F /  10.7 °C 30.14in /  1020.5hPa North 1.3mph /  2.1km/h 10mph /  16.1km/h 97% 0.00in /  0mm 216 W/m2
09:04 52.3 °F /  11.3 °C 51.4 °F /  10.8 °C 30.14in /  1020.5hPa NNW 0.1mph /  0.2km/h 10mph /  16.1km/h 97% 0.00in /  0mm 174 W/m2
09:09 52.3 °F /  11.3 °C 51.5 °F /  10.8 °C 30.14in /  1020.5hPa NW 2.1mph /  3.4km/h 9mph /  14.5km/h 97% 0.00in /  0mm 165 W/m2
09:14 52.2 °F /  11.2 °C 51.4 °F /  10.8 °C 30.14in /  1020.5hPa NW 1.8mph /  2.9km/h 9mph /  14.5km/h 97% 0.00in /  0mm 163 W/m2
09:19 52.2 °F /  11.2 °C 51.4 °F /  10.8 °C 30.14in /  1020.5hPa NW 0.3mph /  0.5km/h 9mph /  14.5km/h 97% 0.00in /  0mm 162 W/m2
09:24 52.3 °F /  11.3 °C 51.5 °F /  10.8 °C 30.14in /  1020.5hPa NW 2.4mph /  3.9km/h 16mph /  25.7km/h 97% 0.00in /  0mm 169 W/m2
09:29 52.2 °F /  11.2 °C 51.3 °F /  10.7 °C 30.14in /  1020.5hPa NNW 0.9mph /  1.4km/h 16mph /  25.7km/h 96.5% 0.00in /  0mm 163 W/m2
09:34 52.4 °F /  11.3 °C 51.4 °F /  10.8 °C 30.14in /  1020.5hPa NNW 1.1mph /  1.8km/h 16mph /  25.7km/h 96.5% 0.00in /  0mm 163 W/m2
09:39 52.6 °F /  11.4 °C 51.7 °F /  10.9 °C 30.14in /  1020.5hPa NW 2.3mph /  3.7km/h 10mph /  16.1km/h 96.7% 0.00in /  0mm 209 W/m2
09:44 52.6 °F /  11.4 °C 51.5 °F /  10.8 °C 30.13in /  1020.2hPa NNW 0.8mph /  1.3km/h 10mph /  16.1km/h 96% 0.00in /  0mm 211 W/m2
09:49 52.8 °F /  11.6 °C 51.7 °F /  10.9 °C 30.13in /  1020.2hPa NW 2mph /  3.2km/h 10mph /  16.1km/h 96% 0.00in /  0mm 204 W/m2
09:54 53 °F /  11.7 °C 51.8 °F /  11 °C 30.13in /  1020.2hPa NW 1mph /  1.6km/h 10mph /  16.1km/h 96% 0.00in /  0mm 306 W/m2
09:59 53.1 °F /  11.7 °C 52 °F /  11.1 °C 30.12in /  1019.9hPa NNW 1.2mph /  1.9km/h 10mph /  16.1km/h 96% 0.00in /  0mm 432 W/m2
10:04 53.5 °F /  11.9 °C 52.4 °F /  11.3 °C 30.13in /  1020.2hPa NNW 0.3mph /  0.5km/h 10mph /  16.1km/h 96% 0.00in /  0mm 462 W/m2
10:09 54 °F /  12.2 °C 52.8 °F /  11.6 °C 30.13in /  1020.2hPa NNW 2.1mph /  3.4km/h 11mph /  17.7km/h 96% 0.00in /  0mm 304 W/m2
10:14 54.1 °F /  12.3 °C 52.7 °F /  11.5 °C 30.13in /  1020.2hPa WNW 1.4mph /  2.3km/h 11mph /  17.7km/h 95% 0.00in /  0mm 287 W/m2
10:19 54.3 °F /  12.4 °C 52.7 °F /  11.5 °C 30.14in /  1020.5hPa NW 0.7mph /  1.1km/h 11mph /  17.7km/h 94.2% 0.00in /  0mm 199 W/m2
10:24 54.5 °F /  12.5 °C 52.8 °F /  11.6 °C 30.14in /  1020.5hPa WNW 1.5mph /  2.4km/h 11mph /  17.7km/h 94% 0.00in /  0mm 197 W/m2
10:29 54.7 °F /  12.6 °C 53 °F /  11.7 °C 30.14in /  1020.5hPa West 0.5mph /  0.8km/h 11mph /  17.7km/h 94% 0.00in /  0mm 202 W/m2
10:34 54.9 °F /  12.7 °C 53.1 °F /  11.7 °C 30.13in /  1020.2hPa Calm   11mph /  17.7km/h 93.8% 0.00in /  0mm 229 W/m2
10:39 55 °F /  12.8 °C 53 °F /  11.7 °C 30.13in /  1020.2hPa NNW 0.9mph /  1.4km/h 5mph /  8km/h 93% 0.00in /  0mm 230 W/m2
10:44 55.1 °F /  12.8 °C 53.1 °F /  11.7 °C 30.14in /  1020.5hPa North 1mph /  1.6km/h 6mph /  9.7km/h 93% 0.00in /  0mm 230 W/m2
10:49 55.2 °F /  12.9 °C 52.9 °F /  11.6 °C 30.14in /  1020.5hPa WNW 1.3mph /  2.1km/h 6mph /  9.7km/h 92% 0.00in /  0mm 197 W/m2
10:54 55.3 °F /  12.9 °C 52.7 °F /  11.5 °C 30.14in /  1020.5hPa WNW 0.6mph /  1km/h 6mph /  9.7km/h 91.2% 0.00in /  0mm 121 W/m2
10:59 55.3 °F /  12.9 °C 52.7 °F /  11.5 °C 30.14in /  1020.5hPa WNW 0.5mph /  0.8km/h 6mph /  9.7km/h 91% 0.00in /  0mm 88 W/m2
11:04 55.2 °F /  12.9 °C 52.7 °F /  11.5 °C 30.14in /  1020.5hPa WNW 1mph /  1.6km/h 6mph /  9.7km/h 91% 0.00in /  0mm 155 W/m2
11:09 55.2 °F /  12.9 °C 52.6 °F /  11.4 °C 30.14in /  1020.5hPa West 1.2mph /  1.9km/h 9mph /  14.5km/h 91% 0.00in /  0mm 155 W/m2
11:14 55.1 °F /  12.8 °C 52.5 °F /  11.4 °C 30.14in /  1020.5hPa West 1.2mph /  1.9km/h 9mph /  14.5km/h 91% 0.00in /  0mm 239 W/m2
11:19 55.1 °F /  12.8 °C 52.6 °F /  11.4 °C 30.13in /  1020.2hPa WNW 2.7mph /  4.3km/h 9mph /  14.5km/h 91% 0.00in /  0mm 246 W/m2
11:24 55.2 °F /  12.9 °C 52.4 °F /  11.3 °C 30.14in /  1020.5hPa WNW 1.4mph /  2.3km/h 9mph /  14.5km/h 90.3% 0.00in /  0mm 169 W/m2
11:29 55.3 °F /  12.9 °C 52.4 °F /  11.3 °C 30.14in /  1020.5hPa West 0.8mph /  1.3km/h 9mph /  14.5km/h 90% 0.00in /  0mm 120 W/m2
11:34 55.3 °F /  12.9 °C 52.3 °F /  11.3 °C 30.14in /  1020.5hPa WNW 3.6mph /  5.8km/h 10mph /  16.1km/h 89.7% 0.00in /  0mm 213 W/m2
11:39 55.2 °F /  12.9 °C 52.1 °F /  11.2 °C 30.14in /  1020.5hPa WNW 2.9mph /  4.7km/h 10mph /  16.1km/h 89% 0.00in /  0mm 156 W/m2
11:44 55.3 °F /  12.9 °C 52 °F /  11.1 °C 30.14in /  1020.5hPa WNW 4.8mph /  7.7km/h 13mph /  20.9km/h 88.8% 0.00in /  0mm 144 W/m2
11:49 55.2 °F /  12.9 °C 51.8 °F /  11 °C 30.14in /  1020.5hPa WNW 1.4mph /  2.3km/h 13mph /  20.9km/h 88.2% 0.00in /  0mm 121 W/m2
11:54 55.3 °F /  12.9 °C 52.1 °F /  11.2 °C 30.15in /  1020.9hPa WNW 2.2mph /  3.5km/h 13mph /  20.9km/h 89% 0.00in /  0mm 128 W/m2
11:59 55.3 °F /  12.9 °C 52.1 °F /  11.2 °C 30.15in /  1020.9hPa WNW 2.3mph /  3.7km/h 13mph /  20.9km/h 88.8% 0.00in /  0mm 132 W/m2
12:00 55.3 °F /  12.9 °C 51.8 °F /  11 °C 30.14in /  1020.5hPa West 5mph /  8km/h 13mph /  20.9km/h 88% 0.00in /  0mm 130 W/m2
12:09 55.3 °F /  12.9 °C 51.9 °F /  11.1 °C 30.15in /  1020.9hPa WNW 1.5mph /  2.4km/h 10mph /  16.1km/h 88.3% 0.00in /  0mm 156 W/m2
12:14 55.4 °F /  13 °C 52.3 °F /  11.3 °C 30.15in /  1020.9hPa WNW 4mph /  6.4km/h 10mph /  16.1km/h 89% 0.00in /  0mm 183 W/m2
12:19 55.5 °F /  13.1 °C 52.3 °F /  11.3 °C 30.14in /  1020.5hPa WNW 3.5mph /  5.6km/h 10mph /  16.1km/h 89% 0.00in /  0mm 207 W/m2
12:24 55.6 °F /  13.1 °C 52.6 °F /  11.4 °C 30.15in /  1020.9hPa West 0.5mph /  0.8km/h 10mph /  16.1km/h 89.5% 0.00in /  0mm 207 W/m2
12:29 55.8 °F /  13.2 °C 52.9 °F /  11.6 °C 30.15in /  1020.9hPa West 0.6mph /  1km/h 10mph /  16.1km/h 90% 0.00in /  0mm 257 W/m2
12:34 55.9 °F /  13.3 °C 53 °F /  11.7 °C 30.14in /  1020.5hPa WNW 3.1mph /  5km/h 10mph /  16.1km/h 90% 0.00in /  0mm 294 W/m2
12:39 56 °F /  13.3 °C 52.9 °F /  11.6 °C 30.14in /  1020.5hPa WNW 2.4mph /  3.9km/h 9mph /  14.5km/h 89.2% 0.00in /  0mm 295 W/m2
12:44 56.3 °F /  13.5 °C 53.2 °F /  11.8 °C 30.14in /  1020.5hPa WNW 1.4mph /  2.3km/h 9mph /  14.5km/h 89.3% 0.00in /  0mm 274 W/m2
12:49 56.6 °F /  13.7 °C 53.7 °F /  12.1 °C 30.14in /  1020.5hPa West 2.4mph /  3.9km/h 12mph /  19.3km/h 89.9% 0.00in /  0mm 258 W/m2
12:54 56.8 °F /  13.8 °C 53.6 °F /  12 °C 30.14in /  1020.5hPa NW 2.1mph /  3.4km/h 12mph /  19.3km/h 89% 0.00in /  0mm 290 W/m2
12:59 56.8 °F /  13.8 °C 53.3 °F /  11.8 °C 30.14in /  1020.5hPa WNW 3.8mph /  6.1km/h 12mph /  19.3km/h 88.1% 0.00in /  0mm 276 W/m2
13:04 56.8 °F /  13.8 °C 52.9 °F /  11.6 °C 30.14in /  1020.5hPa WNW 5.2mph /  8.4km/h 12mph /  19.3km/h 86.8% 0.00in /  0mm 295 W/m2
13:09 56.8 °F /  13.8 °C 52.6 °F /  11.4 °C 30.14in /  1020.5hPa WNW 6.1mph /  9.8km/h 13mph /  20.9km/h 86% 0.00in /  0mm 410 W/m2
13:14 56.9 °F /  13.8 °C 52.8 °F /  11.6 °C 30.14in /  1020.5hPa WNW 4.4mph /  7.1km/h 13mph /  20.9km/h 86.3% 0.00in /  0mm 415 W/m2
13:19 57.1 °F /  13.9 °C 53 °F /  11.7 °C 30.14in /  1020.5hPa WNW 6mph /  9.7km/h 14mph /  22.5km/h 86% 0.00in /  0mm 557 W/m2
13:24 57.4 °F /  14.1 °C 53.1 °F /  11.7 °C 30.14in /  1020.5hPa WNW 5.5mph /  8.9km/h 14mph /  22.5km/h 85.8% 0.00in /  0mm 707 W/m2
13:29 57.9 °F /  14.4 °C 53.5 °F /  11.9 °C 30.13in /  1020.2hPa WNW 3.6mph /  5.8km/h 14mph /  22.5km/h 85.4% 0.00in /  0mm 744 W/m2
13:34 58.5 °F /  14.7 °C 53.5 °F /  11.9 °C 30.13in /  1020.2hPa WNW 5.7mph /  9.2km/h 15mph /  24.1km/h 83.5% 0.00in /  0mm 559 W/m2
13:39 59 °F /  15 °C 53.9 °F /  12.2 °C 30.12in /  1019.9hPa NW 4.5mph /  7.2km/h 15mph /  24.1km/h 83.2% 0.00in /  0mm 979 W/m2
13:44 59.5 °F /  15.3 °C 53.6 °F /  12 °C 30.12in /  1019.9hPa WNW 5.6mph /  9km/h 15mph /  24.1km/h 80.7% 0.00in /  0mm 979 W/m2
13:49 59.8 °F /  15.4 °C 53.4 °F /  11.9 °C 30.12in /  1019.9hPa NW 7.6mph /  12.2km/h 20mph /  32.2km/h 79.5% 0.00in /  0mm 594 W/m2
13:54 59.7 °F /  15.4 °C 53.2 °F /  11.8 °C 30.12in /  1019.9hPa NW 6.3mph /  10.1km/h 20mph /  32.2km/h 79% 0.00in /  0mm 504 W/m2
13:59 59.8 °F /  15.4 °C 53.6 °F /  12 °C 30.12in /  1019.9hPa NW 1.6mph /  2.6km/h 20mph /  32.2km/h 79.7% 0.00in /  0mm 582 W/m2
14:04 60.1 °F /  15.6 °C 53.8 °F /  12.1 °C 30.12in /  1019.9hPa NW 3.5mph /  5.6km/h 20mph /  32.2km/h 79.6% 0.00in /  0mm 747 W/m2
14:09 60.4 °F /  15.8 °C 54.1 °F /  12.3 °C 30.12in /  1019.9hPa NW 2.3mph /  3.7km/h 12mph /  19.3km/h 79.6% 0.00in /  0mm 772 W/m2
14:14 60.9 °F /  16.1 °C 54.4 °F /  12.4 °C 30.12in /  1019.9hPa WNW 2.5mph /  4km/h 13mph /  20.9km/h 79% 0.00in /  0mm 534 W/m2
14:19 61.4 °F /  16.3 °C 54.6 °F /  12.6 °C 30.12in /  1019.9hPa WNW 2.8mph /  4.5km/h 15mph /  24.1km/h 78.3% 0.00in /  0mm 534 W/m2
14:24 61.6 °F /  16.4 °C 53.7 °F /  12.1 °C 30.12in /  1019.9hPa WNW 2.6mph /  4.2km/h 15mph /  24.1km/h 75.4% 0.00in /  0mm 512 W/m2
14:29 61.5 °F /  16.4 °C 53.5 °F /  11.9 °C 30.12in /  1019.9hPa West 2.8mph /  4.5km/h 15mph /  24.1km/h 75% 0.00in /  0mm 392 W/m2
14:34 61.5 °F /  16.4 °C 53.5 °F /  11.9 °C 30.12in /  1019.9hPa WNW 2.7mph /  4.3km/h 15mph /  24.1km/h 75% 0.00in /  0mm 392 W/m2
14:39 61.5 °F /  16.4 °C 53.7 °F /  12.1 °C 30.12in /  1019.9hPa NW 2.5mph /  4km/h 10mph /  16.1km/h 75.7% 0.00in /  0mm 274 W/m2
14:44 61.4 °F /  16.3 °C 53.7 °F /  12.1 °C 30.12in /  1019.9hPa WNW 3.2mph /  5.1km/h 14mph /  22.5km/h 75.7% 0.00in /  0mm 178 W/m2
14:49 61.1 °F /  16.2 °C 53.2 °F /  11.8 °C 30.13in /  1020.2hPa WNW 5.7mph /  9.2km/h 16mph /  25.7km/h 75.2% 0.00in /  0mm 181 W/m2
14:54 60.8 °F /  16 °C 52.9 °F /  11.6 °C 30.13in /  1020.2hPa West 3.4mph /  5.5km/h 16mph /  25.7km/h 75.2% 0.00in /  0mm 146 W/m2
14:59 60.4 °F /  15.8 °C 52.9 °F /  11.6 °C 30.12in /  1019.9hPa West 2.7mph /  4.3km/h 16mph /  25.7km/h 76% 0.00in /  0mm 262 W/m2
15:04 60.3 °F /  15.7 °C 53 °F /  11.7 °C 30.12in /  1019.9hPa WNW 0.9mph /  1.4km/h 16mph /  25.7km/h 76.9% 0.00in /  0mm 316 W/m2
15:09 60.4 °F /  15.8 °C 53.3 °F /  11.8 °C 30.13in /  1020.2hPa West 2.5mph /  4km/h 11mph /  17.7km/h 77.5% 0.00in /  0mm 294 W/m2
15:14 60.5 °F /  15.8 °C 53.2 °F /  11.8 °C 30.13in /  1020.2hPa WNW 2.6mph /  4.2km/h 11mph /  17.7km/h 76.9% 0.00in /  0mm 257 W/m2
15:19 60.6 °F /  15.9 °C 53.2 °F /  11.8 °C 30.13in /  1020.2hPa WNW 4.9mph /  7.9km/h 12mph /  19.3km/h 76.5% 0.00in /  0mm 197 W/m2
15:24 60.5 °F /  15.8 °C 53 °F /  11.7 °C 30.13in /  1020.2hPa WNW 5.7mph /  9.2km/h 14mph /  22.5km/h 76.3% 0.00in /  0mm 130 W/m2
15:29 60.3 °F /  15.7 °C 53 °F /  11.7 °C 30.13in /  1020.2hPa WNW 2.7mph /  4.3km/h 14mph /  22.5km/h 76.8% 0.00in /  0mm 155 W/m2
15:34 60 °F /  15.6 °C 52.5 °F /  11.4 °C 30.13in /  1020.2hPa WNW 4.4mph /  7.1km/h 17mph /  27.4km/h 76.2% 0.00in /  0mm 269 W/m2
15:39 60 °F /  15.6 °C 52.6 °F /  11.4 °C 30.13in /  1020.2hPa NW 4.2mph /  6.8km/h 17mph /  27.4km/h 76.5% 0.00in /  0mm 315 W/m2
15:44 60.2 °F /  15.7 °C 52.6 °F /  11.4 °C 30.13in /  1020.2hPa NW 4.4mph /  7.1km/h 17mph /  27.4km/h 75.8% 0.00in /  0mm 306 W/m2
15:49 60.6 °F /  15.9 °C 53.1 °F /  11.7 °C 30.14in /  1020.5hPa WNW 0.9mph /  1.4km/h 17mph /  27.4km/h 76.4% 0.00in /  0mm 304 W/m2
15:50 60.9 °F /  16.1 °C 53.7 °F /  12.1 °C 30.13in /  1020.2hPa WNW 5.3mph /  8.5km/h 17mph /  27.4km/h 77% 0.00in /  0mm 232 W/m2
16:09 60.8 °F /  16 °C 52.5 °F /  11.4 °C 30.14in /  1020.5hPa NW 3.3mph /  5.3km/h 10mph /  16.1km/h 74% 0.00in /  0mm 323 W/m2
16:14 60.8 °F /  16 °C 53 °F /  11.7 °C 30.14in /  1020.5hPa NW 1.1mph /  1.8km/h 10mph /  16.1km/h 75.4% 0.00in /  0mm 346 W/m2
16:19 61.1 °F /  16.2 °C 53.1 °F /  11.7 °C 30.14in /  1020.5hPa NW 2.4mph /  3.9km/h 10mph /  16.1km/h 75.1% 0.00in /  0mm 271 W/m2
16:24 61.3 °F /  16.3 °C 53.1 °F /  11.7 °C 30.13in /  1020.2hPa NW 2.2mph /  3.5km/h 16mph /  25.7km/h 74.5% 0.00in /  0mm 156 W/m2
16:29 61.2 °F /  16.2 °C 52.5 °F /  11.4 °C 30.13in /  1020.2hPa NW 5.4mph /  8.7km/h 16mph /  25.7km/h 73% 0.00in /  0mm 153 W/m2
16:34 61.1 °F /  16.2 °C 52.4 °F /  11.3 °C 30.14in /  1020.5hPa NW 2.9mph /  4.7km/h 16mph /  25.7km/h 73.1% 0.00in /  0mm 207 W/m2
16:39 61 °F /  16.1 °C 52.4 °F /  11.3 °C 30.13in /  1020.2hPa NW 2.6mph /  4.2km/h 14mph /  22.5km/h 73.3% 0.00in /  0mm 230 W/m2
16:44 61.1 °F /  16.2 °C 52.5 °F /  11.4 °C 30.14in /  1020.5hPa NW 1.2mph /  1.9km/h 14mph /  22.5km/h 73.5% 0.00in /  0mm 214 W/m2
16:49 61.2 °F /  16.2 °C 53 °F /  11.7 °C 30.14in /  1020.5hPa NW 2.5mph /  4km/h 14mph /  22.5km/h 74.2% 0.00in /  0mm 199 W/m2
16:54 61.3 °F /  16.3 °C 52.7 °F /  11.5 °C 30.13in /  1020.2hPa NW 2.3mph /  3.7km/h 14mph /  22.5km/h 73.3% 0.00in /  0mm 192 W/m2
16:59 61.4 °F /  16.3 °C 52.8 °F /  11.6 °C 30.13in /  1020.2hPa NW 0.8mph /  1.3km/h 14mph /  22.5km/h 73.4% 0.00in /  0mm 232 W/m2
17:04 61.6 °F /  16.4 °C 53.4 °F /  11.9 °C 30.13in /  1020.2hPa WNW 2.2mph /  3.5km/h 14mph /  22.5km/h 74.3% 0.00in /  0mm 135 W/m2
17:09 62 °F /  16.7 °C 53.6 °F /  12 °C 30.13in /  1020.2hPa WNW 3.3mph /  5.3km/h 11mph /  17.7km/h 73.9% 0.00in /  0mm 70 W/m2
17:14 62.4 °F /  16.9 °C 53 °F /  11.7 °C 30.13in /  1020.2hPa WNW 3.8mph /  6.1km/h 14mph /  22.5km/h 71.4% 0.00in /  0mm 234 W/m2
17:19 62.7 °F /  17.1 °C 53.6 °F /  12 °C 30.13in /  1020.2hPa NW 1.7mph /  2.7km/h 14mph /  22.5km/h 72.1% 0.00in /  0mm 234 W/m2
17:24 63 °F /  17.2 °C 53.8 °F /  12.1 °C 30.14in /  1020.5hPa WNW 3.4mph /  5.5km/h 14mph /  22.5km/h 71.9% 0.00in /  0mm 197 W/m2
17:29 63.1 °F /  17.3 °C 53.5 °F /  11.9 °C 30.14in /  1020.5hPa West 1.6mph /  2.6km/h 14mph /  22.5km/h 71% 0.00in /  0mm 192 W/m2
17:34 63 °F /  17.2 °C 53.6 °F /  12 °C 30.14in /  1020.5hPa WNW 0.5mph /  0.8km/h 14mph /  22.5km/h 71.5% 0.00in /  0mm 169 W/m2
17:39 62.9 °F /  17.2 °C 53.8 °F /  12.1 °C 30.14in /  1020.5hPa Calm   4mph /  6.4km/h 72.2% 0.00in /  0mm 174 W/m2
17:44 62.9 °F /  17.2 °C 54.3 °F /  12.4 °C 30.15in /  1020.9hPa NW 0.9mph /  1.4km/h 6mph /  9.7km/h 73.3% 0.00in /  0mm 121 W/m2
17:49 62.9 °F /  17.2 °C 53.9 °F /  12.2 °C 30.15in /  1020.9hPa WNW 1.5mph /  2.4km/h 7mph /  11.3km/h 72.3% 0.00in /  0mm 32 W/m2
17:54 62.8 °F /  17.1 °C 53.8 °F /  12.1 °C 30.15in /  1020.9hPa NW 1mph /  1.6km/h 7mph /  11.3km/h 72.4% 0.00in /  0mm 60 W/m2
17:59 62.7 °F /  17.1 °C 53.8 °F /  12.1 °C 30.15in /  1020.9hPa WNW 2mph /  3.2km/h 7mph /  11.3km/h 72.6% 0.00in /  0mm 53 W/m2
18:04 62.7 °F /  17.1 °C 53.7 °F /  12.1 °C 30.15in /  1020.9hPa NNW 0.5mph /  0.8km/h 7mph /  11.3km/h 72.5% 0.00in /  0mm 39 W/m2
18:09 62.7 °F /  17.1 °C 53.7 °F /  12.1 °C 30.15in /  1020.9hPa NNW 1mph /  1.6km/h 4mph /  6.4km/h 72.3% 0.00in /  0mm 35 W/m2
18:14 62.8 °F /  17.1 °C 53.7 °F /  12.1 °C 30.15in /  1020.9hPa NNW 0.3mph /  0.5km/h 4mph /  6.4km/h 72.3% 0.00in /  0mm 35 W/m2
18:19 62.9 °F /  17.2 °C 53.8 °F /  12.1 °C 30.15in /  1020.9hPa NW 1.3mph /  2.1km/h 6mph /  9.7km/h 72.2% 0.00in /  0mm 37 W/m2
18:24 63 °F /  17.2 °C 53.8 °F /  12.1 °C 30.15in /  1020.9hPa WNW 2.7mph /  4.3km/h 6mph /  9.7km/h 72% 0.00in /  0mm 37 W/m2
18:29 63.1 °F /  17.3 °C 53.8 °F /  12.1 °C 30.15in /  1020.9hPa WSW 1mph /  1.6km/h 10mph /  16.1km/h 71.6% 0.00in /  0mm 35 W/m2
18:34 63.1 °F /  17.3 °C 53.8 °F /  12.1 °C 30.15in /  1020.9hPa West 0.8mph /  1.3km/h 10mph /  16.1km/h 71.5% 0.00in /  0mm 33 W/m2
18:39 63.1 °F /  17.3 °C 53.9 °F /  12.2 °C 30.15in /  1020.9hPa WNW 0.4mph /  0.6km/h 7mph /  11.3km/h 71.8% 0.00in /  0mm 32 W/m2
18:44 63.1 °F /  17.3 °C 53.7 °F /  12.1 °C 30.15in /  1020.9hPa NNW 0.6mph /  1km/h 7mph /  11.3km/h 71.3% 0.00in /  0mm 32 W/m2
18:49 63 °F /  17.2 °C 53.5 °F /  11.9 °C 30.15in /  1020.9hPa NW 1.1mph /  1.8km/h 8mph /  12.9km/h 71.2% 0.00in /  0mm 30 W/m2
18:54 63 °F /  17.2 °C 53.5 °F /  11.9 °C 30.15in /  1020.9hPa Calm   8mph /  12.9km/h 71.1% 0.00in /  0mm 30 W/m2
18:59 62.9 °F /  17.2 °C 53.8 °F /  12.1 °C 30.15in /  1020.9hPa NW 0.4mph /  0.6km/h 8mph /  12.9km/h 72% 0.00in /  0mm 28 W/m2
19:04 62.9 °F /  17.2 °C 53.8 °F /  12.1 °C 30.15in /  1020.9hPa NW 0.1mph /  0.2km/h 8mph /  12.9km/h 72% 0.00in /  0mm 28 W/m2
19:09 62.9 °F /  17.2 °C 53.8 °F /  12.1 °C 30.15in /  1020.9hPa Calm   2mph /  3.2km/h 72% 0.00in /  0mm 26 W/m2
19:14 62.9 °F /  17.2 °C 53.5 °F /  11.9 °C 30.15in /  1020.9hPa NW 0.1mph /  0.2km/h 2mph /  3.2km/h 71.5% 0.00in /  0mm 26 W/m2
19:19 62.8 °F /  17.1 °C 53.4 °F /  11.9 °C 30.15in /  1020.9hPa Calm   2mph /  3.2km/h 71.3% 0.00in /  0mm 25 W/m2
19:24 62.8 °F /  17.1 °C 53.2 °F /  11.8 °C 30.15in /  1020.9hPa Calm   2mph /  3.2km/h 71% 0.00in /  0mm 23 W/m2
19:29 62.7 °F /  17.1 °C 53.5 °F /  11.9 °C 30.15in /  1020.9hPa Calm   2mph /  3.2km/h 71.8% 0.00in /  0mm 23 W/m2
19:34 62.7 °F /  17.1 °C 53.5 °F /  11.9 °C 30.15in /  1020.9hPa Calm   2mph /  3.2km/h 72% 0.00in /  0mm 21 W/m2
19:39 62.6 °F /  17 °C 53.7 °F /  12.1 °C 30.15in /  1020.9hPa Calm     72.7% 0.00in /  0mm 19 W/m2
19:44 62.5 °F /  16.9 °C 53.4 °F /  11.9 °C 30.16in /  1021.2hPa Calm     72.1% 0.00in /  0mm 18 W/m2
19:49 62.3 °F /  16.8 °C 53.4 °F /  11.9 °C 30.16in /  1021.2hPa Calm     72.5% 0.00in /  0mm 16 W/m2
19:54 62.2 °F /  16.8 °C 53.5 °F /  11.9 °C 30.15in /  1020.9hPa Calm     73% 0.00in /  0mm 12 W/m2
19:59 62 °F /  16.7 °C 53.3 °F /  11.8 °C 30.15in /  1020.9hPa Calm     73% 0.00in /  0mm 9 W/m2
20:00 62 °F /  16.7 °C 53.3 °F /  11.8 °C 30.15in /  1020.9hPa Calm     73% 0.00in /  0mm 5 W/m2
20:09 61.6 °F /  16.4 °C 53.3 °F /  11.8 °C 30.16in /  1021.2hPa Calm     74.1% 0.00in /  0mm 0 W/m2
20:14 61.3 °F /  16.3 °C 53.3 °F /  11.8 °C 30.16in /  1021.2hPa Calm     75% 0.00in /  0mm 0 W/m2
20:19 61.1 °F /  16.2 °C 53.1 °F /  11.7 °C 30.16in /  1021.2hPa Calm     75% 0.00in /  0mm 0 W/m2
20:24 60.8 °F /  16 °C 53.2 °F /  11.8 °C 30.16in /  1021.2hPa Calm     76% 0.00in /  0mm 0 W/m2
20:29 60.4 °F /  15.8 °C 53.2 °F /  11.8 °C 30.16in /  1021.2hPa Calm     77% 0.00in /  0mm 0 W/m2
20:34 60 °F /  15.6 °C 53.1 °F /  11.7 °C 30.16in /  1021.2hPa Calm     77.9% 0.00in /  0mm 0 W/m2
20:39 59.5 °F /  15.3 °C 53 °F /  11.7 °C 30.16in /  1021.2hPa Calm     79% 0.00in /  0mm 0 W/m2
20:44 59.1 °F /  15.1 °C 52.8 °F /  11.6 °C 30.17in /  1021.6hPa Calm     79.5% 0.00in /  0mm 0 W/m2
20:49 58.8 °F /  14.9 °C 52.6 °F /  11.4 °C 30.16in /  1021.2hPa Calm     80% 0.00in /  0mm 0 W/m2
20:54 58.5 °F /  14.7 °C 52.6 °F /  11.4 °C 30.17in /  1021.6hPa Calm     80.7% 0.00in /  0mm 0 W/m2
20:59 58.2 °F /  14.6 °C 52.4 °F /  11.3 °C 30.17in /  1021.6hPa Calm     81% 0.00in /  0mm 0 W/m2
21:04 57.9 °F /  14.4 °C 52.4 °F /  11.3 °C 30.17in /  1021.6hPa Calm     81.8% 0.00in /  0mm 0 W/m2
21:09 57.7 °F /  14.3 °C 52.3 °F /  11.3 °C 30.18in /  1021.9hPa Calm     82.3% 0.00in /  0mm 0 W/m2
21:14 57.4 °F /  14.1 °C 52.3 °F /  11.3 °C 30.18in /  1021.9hPa Calm     83% 0.00in /  0mm 0 W/m2
21:19 57.2 °F /  14 °C 52.1 °F /  11.2 °C 30.17in /  1021.6hPa Calm     83% 0.00in /  0mm 0 W/m2
21:24 57 °F /  13.9 °C 52.2 °F /  11.2 °C 30.18in /  1021.9hPa Calm     84% 0.00in /  0mm 0 W/m2
21:29 56.8 °F /  13.8 °C 52.1 °F /  11.2 °C 30.18in /  1021.9hPa Calm     84% 0.00in /  0mm 0 W/m2
21:34 56.7 °F /  13.7 °C 51.9 °F /  11.1 °C 30.18in /  1021.9hPa Calm     84.2% 0.00in /  0mm 0 W/m2
21:39 56.5 °F /  13.6 °C 52 °F /  11.1 °C 30.18in /  1021.9hPa Calm     85% 0.00in /  0mm 0 W/m2
21:44 56.3 °F /  13.5 °C 51.9 °F /  11.1 °C 30.18in /  1021.9hPa Calm     85% 0.00in /  0mm 0 W/m2
22:00 55.9 °F /  13.3 °C 51.8 °F /  11 °C 30.19in /  1022.2hPa Calm     86% 0.00in /  0mm 0 W/m2
22:30 55.3 °F /  12.9 °C 51.5 °F /  10.8 °C 30.18in /  1021.9hPa Calm     87% 0.00in /  0mm 0 W/m2
23:00 54.7 °F /  12.6 °C 51.5 °F /  10.8 °C 30.19in /  1022.2hPa Calm     89% 0.00in /  0mm 0 W/m2
23:30 53.9 °F /  12.2 °C 50.7 °F /  10.4 °C 30.19in /  1022.2hPa Calm     89% 0.00in /  0mm 0 W/m2
Hartford County Weather
Compliments of Weather Underground - 2 mb